createdAt,value
2023-05-14T00:00:00.765Z,10.94
2023-05-14T00:02:27.577Z,10.92
2023-05-14T00:04:54.283Z,10.88
2023-05-14T00:07:20.966Z,10.88
2023-05-14T00:09:47.627Z,10.80
2023-05-14T00:12:14.315Z,10.82
2023-05-14T00:14:41.030Z,10.81
2023-05-14T00:17:07.620Z,10.85
2023-05-14T00:19:34.215Z,10.85
2023-05-14T00:22:01.014Z,10.88
2023-05-14T00:24:27.759Z,10.92
2023-05-14T00:26:54.433Z,10.95
2023-05-14T00:29:21.081Z,10.95
2023-05-14T00:31:47.760Z,11.00
2023-05-14T00:34:14.509Z,11.02
2023-05-14T00:36:41.145Z,11.02
2023-05-14T00:39:07.825Z,11.00
2023-05-14T00:41:34.527Z,11.02
2023-05-14T00:44:01.176Z,11.02
2023-05-14T00:46:27.903Z,10.95
2023-05-14T00:48:54.609Z,10.92
2023-05-14T00:51:21.933Z,10.88
2023-05-14T00:53:48.867Z,10.85
2023-05-14T00:56:15.748Z,10.82
2023-05-14T00:58:42.398Z,10.82
2023-05-14T01:01:09.207Z,10.87
2023-05-14T01:03:35.920Z,10.80
2023-05-14T01:06:10.675Z,10.78
2023-05-14T01:08:40.226Z,10.74
2023-05-14T01:11:10.132Z,10.77
2023-05-14T01:13:40.171Z,10.80
2023-05-14T01:16:06.818Z,10.84
2023-05-14T01:18:33.582Z,10.88
2023-05-14T01:21:00.204Z,10.87
2023-05-14T01:23:26.862Z,10.90
2023-05-14T01:25:53.459Z,10.91
2023-05-14T01:28:21.918Z,10.88
2023-05-14T01:31:02.498Z,10.92
2023-05-14T01:33:29.590Z,10.98
2023-05-14T01:35:56.264Z,10.94
2023-05-14T01:38:23.161Z,10.88
2023-05-14T01:40:49.768Z,10.91
2023-05-14T01:43:16.553Z,10.91
2023-05-14T01:45:43.785Z,10.94
2023-05-14T01:48:10.783Z,10.94
2023-05-14T01:50:37.517Z,10.94
2023-05-14T01:53:04.167Z,10.92
2023-05-14T01:55:30.821Z,10.87
2023-05-14T01:57:57.419Z,10.87
2023-05-14T02:00:26.174Z,10.85
2023-05-14T02:02:53.137Z,10.84
2023-05-14T02:05:19.909Z,10.77
2023-05-14T02:07:46.558Z,10.65
2023-05-14T02:10:13.307Z,10.56
2023-05-14T02:12:40.019Z,10.52
2023-05-14T02:15:08.925Z,10.59
2023-05-14T02:17:35.668Z,10.59
2023-05-14T02:20:02.378Z,10.60
2023-05-14T02:22:29.062Z,10.59
2023-05-14T02:24:56.145Z,10.52
2023-05-14T02:27:22.787Z,10.46
2023-05-14T02:29:49.402Z,10.44
2023-05-14T02:32:16.061Z,10.40
2023-05-14T02:34:42.752Z,10.37
2023-05-14T02:37:09.389Z,10.43
2023-05-14T02:39:36.026Z,10.43
2023-05-14T02:42:02.770Z,10.43
2023-05-14T02:44:31.844Z,10.39
2023-05-14T02:46:58.614Z,10.39
2023-05-14T02:49:25.347Z,10.42
2023-05-14T02:51:54.305Z,10.43
2023-05-14T02:54:20.952Z,10.42
2023-05-14T02:56:47.755Z,10.43
2023-05-14T02:59:14.530Z,10.46
2023-05-14T03:01:41.826Z,10.46
2023-05-14T03:04:08.876Z,10.49
2023-05-14T03:06:35.574Z,10.52
2023-05-14T03:09:02.240Z,10.56
2023-05-14T03:11:28.874Z,10.57
2023-05-14T03:13:55.533Z,10.59
2023-05-14T03:16:22.777Z,10.54
2023-05-14T03:18:49.475Z,10.53
2023-05-14T03:21:16.171Z,10.50
2023-05-14T03:23:42.864Z,10.49
2023-05-14T03:26:09.470Z,10.56
2023-05-14T03:28:36.112Z,10.61
2023-05-14T03:31:02.849Z,10.60
2023-05-14T03:33:29.556Z,10.60
2023-05-14T03:35:56.156Z,10.57
2023-05-14T03:38:22.819Z,10.42
2023-05-14T03:40:49.428Z,10.33
2023-05-14T03:43:16.453Z,10.34
2023-05-14T03:45:43.141Z,10.43
2023-05-14T03:48:09.899Z,10.49
2023-05-14T03:50:36.716Z,10.50
2023-05-14T03:53:03.430Z,10.44
2023-05-14T03:55:30.092Z,10.44
2023-05-14T03:57:56.818Z,10.46
2023-05-14T04:00:23.704Z,10.53
2023-05-14T04:02:50.726Z,10.61
2023-05-14T04:05:17.535Z,10.67
2023-05-14T04:07:45.920Z,10.68
2023-05-14T04:10:13.510Z,10.74
2023-05-14T04:12:40.144Z,10.80
2023-05-14T04:15:07.432Z,10.78
2023-05-14T04:17:35.047Z,10.71
2023-05-14T04:20:02.028Z,10.68
2023-05-14T04:22:28.725Z,10.63
2023-05-14T04:24:55.320Z,10.59
2023-05-14T04:27:22.314Z,10.64
2023-05-14T04:29:49.697Z,10.71
2023-05-14T04:32:16.452Z,10.74
2023-05-14T04:34:43.130Z,10.78
2023-05-14T04:37:10.175Z,10.78
2023-05-14T04:39:36.849Z,10.90
2023-05-14T04:42:03.759Z,10.92
2023-05-14T04:44:30.531Z,10.90
2023-05-14T04:46:57.292Z,10.94
2023-05-14T04:49:23.936Z,11.11
2023-05-14T04:51:50.820Z,11.23
2023-05-14T04:54:17.511Z,11.19
2023-05-14T04:56:44.210Z,11.16
2023-05-14T04:59:10.883Z,11.20
2023-05-14T05:01:37.709Z,11.19
2023-05-14T05:04:04.529Z,11.22
2023-05-14T05:06:31.715Z,11.26
2023-05-14T05:08:59.992Z,11.29
2023-05-14T05:11:27.953Z,11.26
2023-05-14T05:13:54.613Z,11.22
2023-05-14T05:16:21.339Z,11.23
2023-05-14T05:18:48.057Z,11.18
2023-05-14T05:21:14.773Z,11.19
2023-05-14T05:23:41.563Z,11.23
2023-05-14T05:26:08.250Z,11.29
2023-05-14T05:28:34.902Z,11.35
2023-05-14T05:31:01.600Z,11.46
2023-05-14T05:33:28.342Z,11.50
2023-05-14T05:35:55.041Z,11.59
2023-05-14T05:38:21.718Z,11.65
2023-05-14T05:40:48.469Z,11.65
2023-05-14T05:43:15.534Z,11.63
2023-05-14T05:45:42.163Z,11.62
2023-05-14T05:48:08.810Z,11.69
2023-05-14T05:50:35.577Z,11.66
2023-05-14T05:53:02.371Z,11.67
2023-05-14T05:55:29.429Z,11.60
2023-05-14T05:57:56.302Z,11.57
2023-05-14T06:00:24.036Z,11.59
2023-05-14T06:02:50.987Z,11.55
2023-05-14T06:05:17.760Z,11.53
2023-05-14T06:07:44.489Z,11.50
2023-05-14T06:10:11.190Z,11.47
2023-05-14T06:12:37.879Z,11.40
2023-05-14T06:15:04.810Z,11.40
2023-05-14T06:17:31.617Z,11.49
2023-05-14T06:19:58.255Z,11.49
2023-05-14T06:22:24.954Z,11.50
2023-05-14T06:24:51.665Z,11.60
2023-05-14T06:27:18.321Z,11.71
2023-05-14T06:29:45.021Z,11.80
2023-05-14T06:32:15.473Z,11.88
2023-05-14T06:34:42.733Z,11.91
2023-05-14T06:37:09.856Z,11.94
2023-05-14T06:39:37.353Z,11.98
2023-05-14T06:42:04.338Z,12.07
2023-05-14T06:44:31.119Z,12.15
2023-05-14T06:46:57.722Z,12.17
2023-05-14T06:49:24.480Z,12.14
2023-05-14T06:51:51.166Z,12.13
2023-05-14T06:54:17.891Z,12.10
2023-05-14T06:56:44.581Z,12.11
2023-05-14T06:59:11.289Z,12.07
2023-05-14T07:01:37.966Z,12.07
2023-05-14T07:04:04.751Z,12.08
2023-05-14T07:06:32.599Z,12.13
2023-05-14T07:08:59.485Z,12.10
2023-05-14T07:11:26.262Z,12.14
2023-05-14T07:13:53.007Z,12.18
2023-05-14T07:16:19.855Z,12.17
2023-05-14T07:18:46.639Z,12.15
2023-05-14T07:21:13.304Z,12.15
2023-05-14T07:23:39.973Z,12.15
2023-05-14T07:26:06.869Z,12.08
2023-05-14T07:28:33.690Z,12.07
2023-05-14T07:31:00.933Z,12.05
2023-05-14T07:33:27.654Z,12.14
2023-05-14T07:35:54.366Z,12.17
2023-05-14T07:38:21.039Z,12.24
2023-05-14T07:40:47.750Z,12.31
2023-05-14T07:43:14.399Z,12.36
2023-05-14T07:45:41.226Z,12.35
2023-05-14T07:48:08.118Z,12.38
2023-05-14T07:50:34.887Z,12.36
2023-05-14T07:53:01.502Z,12.45
2023-05-14T07:55:28.201Z,12.49
2023-05-14T07:57:54.864Z,12.60
2023-05-14T08:00:21.680Z,12.77
2023-05-14T08:02:49.253Z,12.96
2023-05-14T08:05:16.682Z,13.01
2023-05-14T08:07:43.521Z,13.06
2023-05-14T08:10:10.416Z,13.12
2023-05-14T08:12:37.201Z,13.25
2023-05-14T08:15:04.307Z,13.35
2023-05-14T08:17:31.195Z,13.44
2023-05-14T08:19:57.834Z,13.31
2023-05-14T08:22:24.605Z,13.30
2023-05-14T08:24:51.222Z,13.25
2023-05-14T08:27:17.860Z,13.17
2023-05-14T08:29:44.590Z,13.10
2023-05-14T08:32:21.928Z,13.04
2023-05-14T08:34:50.852Z,13.01
2023-05-14T08:37:17.512Z,12.97
2023-05-14T08:39:44.218Z,12.96
2023-05-14T08:42:12.712Z,12.97
2023-05-14T08:44:42.715Z,13.01
2023-05-14T08:47:09.375Z,13.12
2023-05-14T08:49:42.805Z,13.17
2023-05-14T08:52:09.660Z,13.14
2023-05-14T08:54:36.528Z,13.08
2023-05-14T08:57:07.036Z,13.03
2023-05-14T08:59:33.747Z,13.03
2023-05-14T09:02:01.916Z,13.07
2023-05-14T09:04:29.650Z,13.14
2023-05-14T09:06:56.353Z,13.27
2023-05-14T09:09:23.264Z,13.20
2023-05-14T09:11:50.733Z,13.20
2023-05-14T09:14:17.403Z,13.15
2023-05-14T09:16:45.416Z,13.17
2023-05-14T09:19:12.802Z,13.25
2023-05-14T09:21:40.285Z,13.30
2023-05-14T09:24:07.452Z,13.37
2023-05-14T09:26:34.624Z,13.40
2023-05-14T09:29:04.586Z,13.40
2023-05-14T09:31:32.236Z,13.41
2023-05-14T09:33:59.299Z,13.38
2023-05-14T09:36:27.263Z,13.47
2023-05-14T09:38:56.914Z,13.57
2023-05-14T09:41:23.611Z,13.65
2023-05-14T09:43:53.304Z,13.65
2023-05-14T09:46:19.917Z,13.58
2023-05-14T09:48:46.683Z,13.57
2023-05-14T09:51:13.610Z,13.45
2023-05-14T09:53:41.302Z,13.41
2023-05-14T09:56:07.942Z,13.38
2023-05-14T09:58:34.618Z,13.41
2023-05-14T10:01:01.839Z,13.44
2023-05-14T10:03:29.891Z,13.58
2023-05-14T10:05:58.471Z,13.58
2023-05-14T10:08:27.401Z,13.51
2023-05-14T10:10:54.828Z,13.49
2023-05-14T10:13:24.158Z,13.45
2023-05-14T10:16:01.190Z,13.40
2023-05-14T10:18:27.916Z,13.59
2023-05-14T10:21:06.367Z,13.75
2023-05-14T10:23:33.768Z,13.87
2023-05-14T10:26:00.377Z,13.93
2023-05-14T10:28:27.588Z,14.05
2023-05-14T10:30:54.441Z,14.21
2023-05-14T10:33:21.352Z,14.34
2023-05-14T10:36:07.457Z,14.52
2023-05-14T10:38:35.689Z,14.71
2023-05-14T10:41:03.136Z,14.91
2023-05-14T10:43:30.955Z,15.16
2023-05-14T10:45:58.441Z,15.34
2023-05-14T10:48:25.401Z,15.54
2023-05-14T10:50:52.071Z,15.67
2023-05-14T10:53:19.085Z,15.72
2023-05-14T10:55:46.002Z,15.74
2023-05-14T10:58:12.731Z,15.79
2023-05-14T11:00:39.459Z,15.88
2023-05-14T11:03:06.789Z,15.89
2023-05-14T11:05:33.852Z,15.87
2023-05-14T11:08:00.669Z,15.75
2023-05-14T11:10:29.650Z,15.77
2023-05-14T11:12:56.538Z,15.84
2023-05-14T11:15:24.984Z,15.89
2023-05-14T11:17:52.273Z,15.88
2023-05-14T11:20:19.222Z,15.74
2023-05-14T11:22:47.882Z,15.50
2023-05-14T11:25:14.828Z,15.40
2023-05-14T11:27:45.483Z,15.44
2023-05-14T11:30:13.160Z,15.36
2023-05-14T11:32:39.985Z,15.40
2023-05-14T11:35:07.162Z,15.46
2023-05-14T11:37:33.965Z,15.64
2023-05-14T11:40:01.028Z,15.87
2023-05-14T11:42:27.726Z,16.01
2023-05-14T11:44:54.344Z,16.06
2023-05-14T11:47:21.465Z,16.09
2023-05-14T11:49:48.659Z,16.02
2023-05-14T11:52:15.994Z,15.91
2023-05-14T11:54:43.783Z,15.89
2023-05-14T11:57:12.637Z,15.88
2023-05-14T11:59:39.850Z,15.88
2023-05-14T12:02:10.389Z,15.97
2023-05-14T12:04:37.148Z,16.01
2023-05-14T12:07:12.227Z,16.06
2023-05-14T12:09:45.242Z,16.06
2023-05-14T12:12:12.506Z,16.08
2023-05-14T12:14:41.633Z,16.09
2023-05-14T12:17:20.291Z,16.33
2023-05-14T12:19:48.450Z,16.45
2023-05-14T12:22:16.368Z,16.56
2023-05-14T12:25:03.769Z,16.53
2023-05-14T12:27:30.635Z,16.46
2023-05-14T12:30:19.123Z,16.53
2023-05-14T12:32:48.932Z,16.66
2023-05-14T12:35:15.848Z,16.59
2023-05-14T12:37:43.064Z,16.53
2023-05-14T12:40:10.357Z,16.39
2023-05-14T12:42:37.227Z,16.26
2023-05-14T12:45:07.378Z,16.27
2023-05-14T12:47:34.793Z,16.18
2023-05-14T12:50:01.476Z,16.19
2023-05-14T12:52:37.971Z,16.08
2023-05-14T12:55:06.926Z,15.94
2023-05-14T12:57:35.394Z,15.98
2023-05-14T13:00:02.540Z,16.06
2023-05-14T13:02:29.824Z,16.10
2023-05-14T13:04:56.535Z,16.10
2023-05-14T13:07:23.543Z,16.01
2023-05-14T13:09:50.180Z,15.91
2023-05-14T13:12:16.924Z,15.87
2023-05-14T13:14:43.605Z,15.84
2023-05-14T13:17:10.360Z,15.79
2023-05-14T13:19:37.587Z,15.74
2023-05-14T13:22:04.536Z,15.67
2023-05-14T13:24:31.270Z,15.51
2023-05-14T13:26:58.405Z,15.40
2023-05-14T13:29:25.084Z,15.36
2023-05-14T13:31:51.797Z,15.33
2023-05-14T13:34:18.863Z,15.30
2023-05-14T13:36:47.023Z,15.30
2023-05-14T13:39:14.559Z,15.31
2023-05-14T13:41:41.461Z,15.33
2023-05-14T13:44:08.078Z,15.36
2023-05-14T13:46:34.856Z,15.26
2023-05-14T13:49:01.650Z,14.95
2023-05-14T13:51:28.930Z,14.45
2023-05-14T13:53:55.898Z,14.26
2023-05-14T13:56:22.864Z,14.14
2023-05-14T13:58:49.690Z,14.14
2023-05-14T14:01:16.826Z,14.12
2023-05-14T14:03:43.636Z,14.05
2023-05-14T14:06:10.890Z,14.02
2023-05-14T14:08:37.601Z,14.05
2023-05-14T14:11:04.714Z,14.12
2023-05-14T14:13:31.406Z,14.05
2023-05-14T14:16:06.292Z,14.07
2023-05-14T14:18:33.295Z,14.14
2023-05-14T14:20:59.910Z,14.23
2023-05-14T14:23:26.707Z,14.38
2023-05-14T14:25:53.677Z,14.51
2023-05-14T14:28:20.460Z,14.55
2023-05-14T14:30:50.284Z,14.67
2023-05-14T14:33:17.189Z,14.72
2023-05-14T14:35:44.072Z,14.83
2023-05-14T14:38:11.025Z,14.91
2023-05-14T14:40:37.765Z,15.03
2023-05-14T14:43:04.591Z,15.06
2023-05-14T14:45:31.695Z,15.09
2023-05-14T14:48:37.477Z,15.14
2023-05-14T14:51:04.651Z,15.09
2023-05-14T14:53:31.486Z,15.13
2023-05-14T14:55:58.372Z,15.13
2023-05-14T14:58:26.076Z,15.13
2023-05-14T15:00:56.502Z,15.06
2023-05-14T15:03:23.989Z,15.00
2023-05-14T15:05:53.919Z,15.00
2023-05-14T15:08:24.562Z,14.95
2023-05-14T15:10:51.600Z,14.91
2023-05-14T15:13:19.291Z,14.83
2023-05-14T15:15:48.407Z,14.76
2023-05-14T15:18:15.092Z,14.69
2023-05-14T15:20:42.032Z,14.60
2023-05-14T15:23:09.065Z,14.52
2023-05-14T15:25:36.444Z,14.54
2023-05-14T15:28:03.157Z,14.54
2023-05-14T15:30:30.372Z,14.54
2023-05-14T15:32:57.175Z,14.55
2023-05-14T15:35:24.129Z,14.55
2023-05-14T15:37:51.097Z,14.48
2023-05-14T15:40:19.074Z,14.38
2023-05-14T15:42:47.075Z,14.27
2023-05-14T15:45:13.936Z,14.28
2023-05-14T15:47:41.390Z,14.31
2023-05-14T15:50:08.655Z,14.20
2023-05-14T15:52:36.505Z,14.18
2023-05-14T15:55:04.544Z,14.20
2023-05-14T15:57:31.792Z,14.13
2023-05-14T15:59:58.406Z,14.16
2023-05-14T16:02:25.120Z,14.20
2023-05-14T16:04:51.790Z,14.10
2023-05-14T16:07:18.550Z,14.09
2023-05-14T16:09:45.225Z,14.00
2023-05-14T16:12:12.521Z,13.96
2023-05-14T16:14:41.764Z,13.99
2023-05-14T16:17:08.785Z,14.05
2023-05-14T16:19:35.413Z,14.07
2023-05-14T16:22:02.263Z,14.03
2023-05-14T16:24:28.926Z,14.05
2023-05-14T16:26:56.131Z,14.00
2023-05-14T16:29:22.921Z,13.99
2023-05-14T16:31:49.841Z,14.00
2023-05-14T16:34:16.769Z,14.03
2023-05-14T16:36:43.399Z,14.03
2023-05-14T16:39:11.517Z,13.97
2023-05-14T16:41:38.110Z,13.95
2023-05-14T16:44:04.961Z,13.97
2023-05-14T16:46:32.389Z,13.96
2023-05-14T16:48:59.248Z,13.93
2023-05-14T16:51:25.863Z,13.93
2023-05-14T16:53:54.701Z,13.83
2023-05-14T16:56:22.525Z,13.85
2023-05-14T16:58:49.363Z,13.86
2023-05-14T17:01:16.110Z,13.85
2023-05-14T17:03:43.611Z,13.86
2023-05-14T17:06:13.352Z,13.89
2023-05-14T17:08:39.991Z,13.86
2023-05-14T17:11:06.714Z,13.82
2023-05-14T17:13:33.530Z,13.82
2023-05-14T17:16:00.687Z,13.70
2023-05-14T17:18:27.522Z,13.69
2023-05-14T17:20:54.228Z,13.62
2023-05-14T17:23:20.969Z,13.62
2023-05-14T17:25:47.881Z,13.59
2023-05-14T17:28:14.522Z,13.57
2023-05-14T17:30:41.772Z,13.55
2023-05-14T17:33:08.702Z,13.49
2023-05-14T17:35:36.436Z,13.47
2023-05-14T17:38:06.032Z,13.47
2023-05-14T17:40:33.620Z,13.42
2023-05-14T17:43:00.520Z,13.42
2023-05-14T17:45:28.549Z,13.42
2023-05-14T17:47:57.364Z,13.38
2023-05-14T17:50:24.125Z,13.40
2023-05-14T17:52:54.419Z,13.37
2023-05-14T17:55:22.509Z,13.40
2023-05-14T17:57:49.649Z,13.38
2023-05-14T18:00:16.557Z,13.37
2023-05-14T18:02:43.409Z,13.30
2023-05-14T18:05:10.577Z,13.21
2023-05-14T18:07:37.331Z,13.20
2023-05-14T18:10:04.309Z,13.10
2023-05-14T18:12:31.326Z,13.07
2023-05-14T18:14:58.154Z,13.08
2023-05-14T18:17:24.960Z,13.08
2023-05-14T18:19:51.867Z,13.10
2023-05-14T18:22:20.340Z,13.10
2023-05-14T18:24:47.171Z,13.10
2023-05-14T18:27:13.949Z,13.10
2023-05-14T18:29:40.606Z,13.07
2023-05-14T18:32:07.575Z,13.07
2023-05-14T18:34:34.260Z,12.99
2023-05-14T18:37:01.129Z,12.99
2023-05-14T18:39:27.821Z,12.93
2023-05-14T18:41:55.098Z,12.92
2023-05-14T18:44:22.650Z,12.89
2023-05-14T18:46:49.376Z,12.89
2023-05-14T18:49:16.121Z,12.90
2023-05-14T18:51:42.758Z,12.90
2023-05-14T18:54:09.426Z,12.90
2023-05-14T18:56:36.812Z,12.90
2023-05-14T18:59:04.380Z,12.92
2023-05-14T19:01:31.506Z,12.90
2023-05-14T19:03:58.380Z,12.90
2023-05-14T19:06:25.230Z,12.90
2023-05-14T19:08:52.099Z,12.79
2023-05-14T19:11:18.882Z,12.75
2023-05-14T19:13:46.800Z,12.72
2023-05-14T19:16:13.494Z,12.64
2023-05-14T19:18:40.212Z,12.66
2023-05-14T19:21:06.831Z,12.63
2023-05-14T19:23:33.496Z,12.63
2023-05-14T19:26:00.179Z,12.66
2023-05-14T19:28:26.824Z,12.66
2023-05-14T19:30:53.457Z,12.63
2023-05-14T19:33:20.113Z,12.63
2023-05-14T19:35:47.432Z,12.60
2023-05-14T19:38:15.068Z,12.59
2023-05-14T19:40:43.047Z,12.59
2023-05-14T19:43:11.922Z,12.55
2023-05-14T19:45:39.094Z,12.53
2023-05-14T19:48:06.606Z,12.56
2023-05-14T19:50:33.601Z,12.56
2023-05-14T19:53:00.776Z,12.49
2023-05-14T19:55:27.477Z,12.41
2023-05-14T19:57:54.257Z,12.26
2023-05-14T20:00:22.411Z,12.21
2023-05-14T20:02:49.102Z,12.17
2023-05-14T20:05:16.633Z,12.22
2023-05-14T20:07:43.864Z,12.28
2023-05-14T20:10:10.919Z,12.32
2023-05-14T20:12:37.577Z,12.35
2023-05-14T20:15:04.659Z,12.31
2023-05-14T20:17:31.292Z,12.28
2023-05-14T20:19:58.256Z,12.31
2023-05-14T20:22:24.901Z,12.28
2023-05-14T20:24:52.726Z,12.24
2023-05-14T20:27:19.506Z,12.21
2023-05-14T20:29:47.044Z,12.18
2023-05-14T20:32:14.892Z,12.08
2023-05-14T20:34:41.539Z,12.07
2023-05-14T20:37:08.698Z,12.01
2023-05-14T20:39:35.388Z,11.95
2023-05-14T20:42:02.112Z,11.93
2023-05-14T20:44:28.750Z,11.86
2023-05-14T20:46:55.401Z,11.81
2023-05-14T20:49:22.088Z,11.78
2023-05-14T20:51:48.738Z,11.77
2023-05-14T20:54:15.543Z,11.73
2023-05-14T20:56:42.166Z,11.69
2023-05-14T20:59:09.223Z,11.65
2023-05-14T21:01:35.965Z,11.66
2023-05-14T21:04:03.371Z,11.65
2023-05-14T21:06:30.319Z,11.65
2023-05-14T21:08:56.967Z,11.66
2023-05-14T21:11:24.044Z,11.62
2023-05-14T21:13:50.737Z,11.63
2023-05-14T21:16:17.394Z,11.62
2023-05-14T21:18:44.161Z,11.59
2023-05-14T21:21:10.859Z,11.53
2023-05-14T21:23:37.584Z,11.44
2023-05-14T21:26:04.498Z,11.42
2023-05-14T21:28:31.430Z,11.35
2023-05-14T21:30:58.142Z,11.23
2023-05-14T21:33:24.801Z,11.26
2023-05-14T21:35:51.477Z,11.26
2023-05-14T21:38:18.397Z,11.20
2023-05-14T21:40:45.167Z,11.20
2023-05-14T21:43:11.823Z,11.16
2023-05-14T21:45:38.781Z,11.20
2023-05-14T21:48:05.773Z,11.22
2023-05-14T21:50:32.533Z,11.16
2023-05-14T21:52:59.162Z,11.09
2023-05-14T21:55:27.674Z,11.14
2023-05-14T21:57:54.654Z,11.05
2023-05-14T22:00:24.136Z,11.02
2023-05-14T22:02:52.353Z,11.07
2023-05-14T22:05:19.591Z,11.08
2023-05-14T22:07:46.246Z,11.04
2023-05-14T22:10:13.358Z,11.04
2023-05-14T22:12:40.310Z,11.01
2023-05-14T22:15:08.703Z,10.92
2023-05-14T22:17:35.415Z,10.98
2023-05-14T22:20:02.822Z,11.00
2023-05-14T22:22:29.455Z,11.01
2023-05-14T22:24:56.143Z,11.00
2023-05-14T22:27:23.078Z,11.02
2023-05-14T22:29:49.673Z,11.05
2023-05-14T22:32:16.335Z,11.14
2023-05-14T22:34:43.036Z,11.16
2023-05-14T22:37:09.648Z,11.18
2023-05-14T22:39:36.463Z,11.22
2023-05-14T22:42:03.112Z,11.28
2023-05-14T22:44:30.135Z,11.23
2023-05-14T22:46:57.111Z,11.25
2023-05-14T22:49:24.021Z,11.19
2023-05-14T22:51:54.186Z,11.19
2023-05-14T22:54:21.229Z,11.28
2023-05-14T22:56:47.834Z,11.30
2023-05-14T22:59:14.450Z,11.33
2023-05-14T23:01:41.235Z,11.36
2023-05-14T23:04:08.068Z,11.32
2023-05-14T23:06:34.760Z,11.28
2023-05-14T23:09:01.420Z,11.20
2023-05-14T23:11:28.189Z,11.14
2023-05-14T23:13:54.913Z,11.07
2023-05-14T23:16:21.606Z,11.07
2023-05-14T23:18:48.455Z,11.07
2023-05-14T23:21:15.276Z,11.11
2023-05-14T23:23:41.925Z,11.11
2023-05-14T23:26:08.581Z,11.14
2023-05-14T23:28:35.271Z,11.15
2023-05-14T23:31:01.911Z,11.16
2023-05-14T23:33:28.728Z,11.22
2023-05-14T23:35:55.403Z,11.26
2023-05-14T23:38:22.101Z,11.26
2023-05-14T23:40:48.993Z,11.25
2023-05-14T23:43:15.685Z,11.26
2023-05-14T23:45:42.387Z,11.23
2023-05-14T23:48:09.119Z,11.28
2023-05-14T23:50:35.758Z,11.30
2023-05-14T23:53:02.394Z,11.32
2023-05-14T23:55:29.041Z,11.33
2023-05-14T23:57:55.797Z,11.36
